Time;durP1;ratioP1;P1;durP2;ratioP2;P2;SDS_P1;SDS_P2;PMS_P1;PMS_P2;Temp;Humidity;BMP_temperature;BMP_pressure;BME280_temperature;BME280_humidity;BME280_pressure;Samples;Min_cycle;Max_cycle;Signal;HPM_P1;HPM_P2
2022/06/14 00:03:19;;;;;;;11.70;5.32;;;;;;;9.81;85.59;102368.66;5017934;28;20068;-71
2022/06/14 00:05:44;;;;;;;12.40;5.95;;;;;;;9.76;85.76;102363.72;5018304;28;20462;-70
2022/06/14 00:08:11;;;;;;;13.05;5.22;;;;;;;9.76;85.68;102358.22;5016969;28;20495;-70
2022/06/14 00:10:36;;;;;;;11.63;5.50;;;;;;;9.76;85.90;102360.97;5016713;28;20065;-70
2022/06/14 00:13:03;;;;;;;12.68;5.10;;;;;;;9.77;86.02;102359.09;5023654;28;20029;-70
2022/06/14 00:15:29;;;;;;;11.10;5.22;;;;;;;9.78;86.23;102364.41;5017726;28;20030;-71
2022/06/14 00:17:54;;;;;;;11.35;5.63;;;;;;;9.82;86.00;102362.97;5012832;28;20110;-71
2022/06/14 00:20:19;;;;;;;16.52;5.80;;;;;;;9.81;85.70;102357.66;5012337;28;20057;-70
2022/06/14 00:22:45;;;;;;;9.70;5.35;;;;;;;9.86;85.46;102363.44;5020461;28;20124;-71
2022/06/14 00:25:23;;;;;;;16.38;8.23;;;;;;;9.82;86.13;102362.97;5018713;28;20598;-70
2022/06/14 00:27:48;;;;;;;14.85;7.47;;;;;;;9.76;86.27;102371.09;5017443;28;20026;-70
2022/06/14 00:30:13;;;;;;;15.20;6.68;;;;;;;9.68;86.16;102368.44;5011120;28;20393;-70
2022/06/14 00:32:39;;;;;;;13.30;7.05;;;;;;;9.66;86.25;102367.78;5005233;28;20463;-71
2022/06/14 00:35:04;;;;;;;15.63;10.10;;;;;;;9.65;86.37;102368.81;5019257;28;20105;-70
2022/06/14 00:37:29;;;;;;;19.33;10.85;;;;;;;9.61;87.06;102369.19;5024310;28;20034;-70
2022/06/14 00:39:55;;;;;;;19.40;11.30;;;;;;;9.59;87.20;102368.53;5010496;28;20120;-70
2022/06/14 00:42:22;;;;;;;16.00;8.00;;;;;;;9.56;87.34;102368.91;5024688;28;20402;-71
2022/06/14 00:45:12;;;;;;;15.27;7.25;;;;;;;9.61;87.68;102368.34;5008631;28;20048;-70
2022/06/14 00:47:43;;;;;;;12.88;6.20;;;;;;;9.49;87.19;102365.22;5017108;28;20442;-70
2022/06/14 00:50:16;;;;;;;15.75;6.72;;;;;;;9.45;87.19;102368.50;5005458;28;20033;-70
2022/06/14 00:53:01;;;;;;;14.27;6.75;;;;;;;9.49;87.88;102369.84;5019067;28;20443;-69
2022/06/14 00:55:36;;;;;;;9.82;5.75;;;;;;;9.44;87.52;102362.19;5023029;28;20040;-69
2022/06/14 00:58:09;;;;;;;13.48;6.15;;;;;;;9.40;87.71;102365.47;5022609;28;20042;-69
2022/06/14 01:00:46;;;;;;;12.10;6.78;;;;;;;9.39;88.07;102353.66;5016928;28;20029;-70
2022/06/14 01:03:20;;;;;;;13.73;6.43;;;;;;;9.37;87.99;102355.72;5007843;28;20418;-70
2022/06/14 01:06:08;;;;;;;15.13;7.03;;;;;;;9.34;88.28;102351.47;5006724;28;20038;-70
2022/06/14 01:08:35;;;;;;;;;;;;;;;9.47;85.66;102355.44;5013547;28;20048;-69
2022/06/14 01:11:03;;;;;;;14.63;7.68;;;;;;;9.30;87.70;102344.66;5019072;28;19952;-70
2022/06/14 01:13:29;;;;;;;;;;;;;;;9.44;85.30;102339.38;5019824;28;20034;-70
2022/06/14 01:15:55;;;;;;;15.95;7.38;;;;;;;9.31;87.98;102340.84;5024680;28;19924;-71
2022/06/14 01:18:23;;;;;;;18.85;8.00;;;;;;;9.24;88.10;102339.91;5020925;28;20037;-70
2022/06/14 01:20:48;;;;;;;17.40;7.90;;;;;;;9.20;87.95;102344.06;5011213;28;20045;-69
2022/06/14 01:23:16;;;;;;;16.52;8.05;;;;;;;9.15;88.15;102343.75;5022918;28;20471;-70
2022/06/14 01:25:51;;;;;;;17.33;9.45;;;;;;;9.18;88.53;102342.56;5009184;28;20041;-69
2022/06/14 01:28:20;;;;;;;15.20;9.13;;;;;;;9.18;88.31;102346.13;5022364;28;20022;-70
2022/06/14 01:30:48;;;;;;;17.98;9.30;;;;;;;9.15;88.68;102343.75;5023187;28;20227;-70
2022/06/14 01:33:19;;;;;;;18.05;9.25;;;;;;;9.14;88.83;102341.22;5017295;28;20497;-69
2022/06/14 01:35:50;;;;;;;17.27;9.63;;;;;;;9.10;89.17;102343.47;5022056;28;20036;-70
2022/06/14 01:38:16;;;;;;;20.52;10.77;;;;;;;9.12;89.35;102341.38;5023984;28;20113;-71
2022/06/14 01:40:45;;;;;;;22.83;11.13;;;;;;;9.15;89.46;102337.44;5017954;28;20108;-70
2022/06/14 01:43:22;;;;;;;;;;;;;;;9.28;86.99;102337.66;5015610;28;20173;-71
2022/06/14 01:46:02;;;;;;;16.80;10.15;;;;;;;9.16;88.72;102342.72;5023998;28;20026;-70
2022/06/14 01:48:35;;;;;;;18.60;9.35;;;;;;;9.12;89.04;102335.88;5017121;28;20371;-70
2022/06/14 01:53:50;;;;;;;17.00;10.60;;;;;;;9.09;89.42;102334.38;5013993;28;20779;-70
2022/06/14 01:56:41;;;;;;;19.98;9.80;;;;;;;9.07;89.86;102327.38;5024407;28;20026;-70
2022/06/14 01:59:23;;;;;;;20.73;9.50;;;;;;;9.02;89.57;102327.06;5018642;28;20473;-70
2022/06/14 02:02:08;;;;;;;17.35;9.93;;;;;;;8.99;89.73;102328.31;5020351;28;20026;-70
2022/06/14 02:04:48;;;;;;;22.00;9.65;;;;;;;9.00;89.77;102332.75;5016791;28;20371;-69
2022/06/14 02:07:28;;;;;;;18.40;9.18;;;;;;;9.01;90.21;102325.38;5018799;28;20037;-69
2022/06/14 02:10:37;;;;;;;19.20;9.25;;;;;;;9.06;90.23;102333.88;4984348;28;20114;-69
2022/06/14 02:13:30;;;;;;;21.08;9.18;;;;;;;9.06;90.00;102323.78;4985215;28;20041;-69
2022/06/14 02:16:05;;;;;;;19.35;8.75;;;;;;;9.02;89.88;102318.84;4986879;28;20042;-70
2022/06/14 02:18:42;;;;;;;19.40;9.25;;;;;;;8.96;90.49;102319.59;4984600;28;20032;-71
2022/06/14 02:21:19;;;;;;;18.48;10.00;;;;;;;8.90;90.34;102320.34;4983569;28;20033;-70
2022/06/14 02:23:54;;;;;;;14.30;9.90;;;;;;;8.83;90.41;102318.34;4983312;28;20026;-71
2022/06/14 02:26:27;;;;;;;16.95;9.98;;;;;;;8.78;90.86;102323.50;4984854;28;20113;-70
2022/06/14 02:28:58;;;;;;;18.48;10.13;;;;;;;8.75;90.65;102315.66;4977741;28;20034;-70
2022/06/14 02:31:29;;;;;;;18.67;10.05;;;;;;;8.70;90.63;102315.34;4974825;28;20114;-70
2022/06/14 02:34:02;;;;;;;21.52;9.73;;;;;;;8.65;90.65;102314.19;4975718;28;20036;-70
2022/06/14 02:36:36;;;;;;;27.27;10.65;;;;;;;8.65;91.16;102311.44;4970011;28;20037;-71
2022/06/14 02:39:08;;;;;;;20.23;10.48;;;;;;;8.67;91.38;102312.09;4969907;28;20595;-71
2022/06/14 02:41:45;;;;;;;18.48;11.05;;;;;;;8.66;91.15;102303.03;4979738;28;20061;-70
2022/06/14 02:44:24;;;;;;;17.83;10.60;;;;;;;8.65;91.24;102306.81;4968924;28;20034;-70
2022/06/14 02:47:00;;;;;;;19.85;10.15;;;;;;;8.59;91.49;102307.56;4984071;28;20073;-71
2022/06/14 02:49:30;;;;;;;17.90;9.77;;;;;;;8.56;91.65;102314.22;4981243;28;20445;-70
2022/06/14 02:52:02;;;;;;;19.67;9.48;;;;;;;8.56;91.67;102299.69;4978199;28;20988;-70
2022/06/14 02:54:31;;;;;;;21.92;9.90;;;;;;;8.52;91.56;102301.13;4978886;28;20050;-71
2022/06/14 02:57:28;;;;;;;18.10;8.63;;;;;;;8.57;91.97;102298.69;4979574;28;20026;-71
2022/06/14 03:00:01;;;;;;;16.73;8.93;;;;;;;8.48;92.27;102307.97;4967091;28;20093;-69
2022/06/14 03:02:33;;;;;;;17.40;9.00;;;;;;;8.46;91.91;102301.81;4978250;28;20442;-71
2022/06/14 03:05:36;;;;;;;18.30;9.00;;;;;;;8.46;92.38;102308.13;4979471;28;20133;-71
2022/06/14 03:08:19;;;;;;;15.77;8.27;;;;;;;8.44;92.07;102312.94;4988169;28;20144;-70
2022/06/14 03:10:52;;;;;;;16.17;9.43;;;;;;;8.41;92.16;102304.25;5017675;28;20104;-71
2022/06/14 03:13:29;;;;;;;21.10;8.73;;;;;;;8.41;92.04;102302.34;5009567;28;20120;-71
2022/06/14 03:16:24;;;;;;;19.40;9.03;;;;;;;8.45;92.45;102302.84;5016338;28;20072;-70
2022/06/14 03:19:22;;;;;;;18.60;8.73;;;;;;;8.41;92.34;102307.81;5009175;28;20045;-71
2022/06/14 03:21:57;;;;;;;26.23;9.82;;;;;;;8.39;92.29;102309.06;5018185;28;20130;-70
2022/06/14 03:24:36;;;;;;;16.95;8.48;;;;;;;8.35;92.24;102304.94;5009612;28;20033;-70
2022/06/14 03:27:09;;;;;;;22.45;9.55;;;;;;;8.30;92.01;102303.59;5014897;28;20022;-71
2022/06/14 03:29:45;;;;;;;16.45;9.00;;;;;;;8.31;92.43;102310.78;5011699;28;20037;-70
2022/06/14 03:32:38;;;;;;;19.50;9.65;;;;;;;8.31;92.40;102305.31;5015630;28;20021;-70
2022/06/14 03:35:10;;;;;;;17.77;9.15;;;;;;;8.23;92.21;102307.25;5025892;28;20075;-69
2022/06/14 03:37:36;;;;;;;18.15;9.52;;;;;;;8.29;92.43;102312.00;5020294;28;20034;-70
2022/06/14 03:40:06;;;;;;;18.42;9.13;;;;;;;8.27;92.54;102303.13;5007124;28;20031;-70
2022/06/14 03:42:33;;;;;;;18.80;9.93;;;;;;;8.25;92.61;102300.53;5007837;28;20045;-70
2022/06/14 03:44:59;;;;;;;20.85;9.52;;;;;;;8.26;92.63;102307.75;5024302;28;20390;-70
2022/06/14 03:47:27;;;;;;;16.10;8.70;;;;;;;8.26;92.76;102307.75;5013059;28;20034;-70
2022/06/14 03:49:52;;;;;;;17.52;8.63;;;;;;;8.28;92.40;102302.06;5015888;28;20034;-69
2022/06/14 03:52:36;;;;;;;17.43;9.27;;;;;;;8.30;93.14;102308.22;5010411;28;20030;-69
2022/06/14 03:55:11;;;;;;;17.50;9.45;;;;;;;8.25;92.65;102303.28;5015806;28;20080;-70
2022/06/14 03:58:03;;;;;;;16.65;9.02;;;;;;;8.26;93.07;102301.38;5013422;28;20497;-70
2022/06/14 04:00:54;;;;;;;17.45;8.40;;;;;;;8.23;92.84;102297.13;5018066;28;20034;-70
2022/06/14 04:03:54;;;;;;;19.77;9.43;;;;;;;8.26;92.94;102299.53;5022902;28;20026;-69
2022/06/14 04:06:45;;;;;;;20.20;9.38;;;;;;;8.27;93.41;102312.19;5020127;28;20056;-70
2022/06/14 04:09:31;;;;;;;16.45;8.55;;;;;;;8.25;93.00;102313.38;5018960;28;20041;-71
2022/06/14 04:12:26;;;;;;;21.33;9.18;;;;;;;8.28;92.94;102316.63;5006266;28;20032;-70
2022/06/14 04:15:16;;;;;;;15.27;9.48;;;;;;;8.25;93.17;102316.97;4997166;28;20398;-69
2022/06/14 04:18:34;;;;;;;16.73;8.93;;;;;;;8.29;93.29;102306.50;5023183;28;20326;-70
2022/06/14 04:20:51;;;;;;;21.20;10.07;;;;;;;8.32;93.05;102320.69;5021900;28;20498;-69
2022/06/14 04:23:47;;;;;;;19.95;9.27;;;;;;;8.38;93.72;102321.91;5021824;28;20044;-70
2022/06/14 04:26:27;;;;;;;20.20;9.60;;;;;;;8.50;93.68;102320.44;4990838;28;20041;-70
2022/06/14 04:29:04;;;;;;;17.90;9.18;;;;;;;8.60;93.39;102327.56;5020913;28;20142;-71
2022/06/14 04:31:37;;;;;;;23.35;9.50;;;;;;;8.60;93.08;102320.22;5017981;28;20037;-70
2022/06/14 04:34:12;;;;;;;19.15;9.88;;;;;;;8.61;92.91;102321.91;5013656;28;20037;-71
2022/06/14 04:36:54;;;;;;;20.33;10.05;;;;;;;8.65;93.08;102328.72;5011942;28;20100;-72
2022/06/14 04:39:27;;;;;;;21.50;9.32;;;;;;;8.66;93.49;102324.94;5016508;28;20805;-71
2022/06/14 04:42:01;;;;;;;19.70;10.02;;;;;;;8.68;93.51;102325.63;5020188;28;20124;-71
2022/06/14 04:44:35;;;;;;;19.35;10.23;;;;;;;8.70;93.27;102326.28;5011767;28;20060;-71
2022/06/14 04:47:12;;;;;;;17.92;11.30;;;;;;;8.73;93.98;102330.56;5012072;28;20347;-71
2022/06/14 04:49:47;;;;;;;22.92;11.32;;;;;;;8.79;94.10;102327.09;5013068;28;20057;-71
2022/06/14 04:52:20;;;;;;;23.92;11.35;;;;;;;8.87;94.27;102323.44;5021700;28;20050;-70
2022/06/14 04:55:00;;;;;;;23.65;11.48;;;;;;;8.92;94.46;102324.63;5009811;28;20065;-71
2022/06/14 04:57:46;;;;;;;23.55;10.90;;;;;;;8.95;94.36;102329.69;5005848;28;20026;-71
2022/06/14 05:00:15;;;;;;;23.95;11.18;;;;;;;8.99;94.45;102325.56;5019657;28;20143;-71
2022/06/14 05:03:09;;;;;;;27.98;12.02;;;;;;;9.06;94.80;102328.41;5019127;28;20136;-71
2022/06/14 05:05:36;;;;;;;25.48;11.75;;;;;;;9.12;94.54;102324.94;5020248;28;20192;-70
2022/06/14 05:08:31;;;;;;;29.92;13.52;;;;;;;9.20;94.43;102324.00;5009337;28;20067;-71
2022/06/14 05:11:09;;;;;;;45.60;15.82;;;;;;;9.23;94.91;102318.16;5015709;28;20041;-71
2022/06/14 05:13:44;;;;;;;45.38;14.98;;;;;;;9.30;94.75;102319.97;5004094;28;20393;-70
2022/06/14 05:16:23;;;;;;;40.75;16.48;;;;;;;9.43;94.07;102334.91;5022964;28;20037;-71
2022/06/14 05:19:16;;;;;;;39.60;16.77;;;;;;;9.55;93.58;102333.44;5039118;28;20025;-70
2022/06/14 05:21:56;;;;;;;40.42;16.70;;;;;;;9.65;92.79;102327.69;5009600;28;20112;-71
2022/06/14 05:24:23;;;;;;;35.55;16.42;;;;;;;9.70;93.14;102331.56;5009349;28;20060;-68
2022/06/14 05:27:16;;;;;;;42.47;17.55;;;;;;;9.79;93.86;102327.69;5009785;28;20040;-70
2022/06/14 05:29:55;;;;;;;40.78;17.55;;;;;;;9.87;93.76;102338.53;5018913;28;20128;-71
2022/06/14 05:32:37;;;;;;;42.15;18.48;;;;;;;9.95;93.51;102334.03;5018697;28;20129;-70
2022/06/14 05:35:30;;;;;;;35.70;19.75;;;;;;;10.03;93.82;102342.13;5020152;28;20109;-71
2022/06/14 05:38:20;;;;;;;45.40;18.75;;;;;;;10.16;94.15;102338.72;5024217;28;20116;-70
2022/06/14 05:40:54;;;;;;;39.05;18.83;;;;;;;10.26;93.92;102337.41;5019950;28;20029;-71
2022/06/14 05:43:25;;;;;;;47.63;18.75;;;;;;;10.34;93.52;102331.81;5017739;28;20056;-72
2022/06/14 05:46:01;;;;;;;42.22;18.08;;;;;;;10.44;93.04;102339.75;5017407;28;20642;-70
2022/06/14 05:48:44;;;;;;;35.80;18.15;;;;;;;10.55;93.47;102339.25;5015074;28;20069;-71
2022/06/14 05:51:13;;;;;;;34.03;17.80;;;;;;;10.65;92.39;102339.78;5006895;28;20072;-72
2022/06/14 05:53:53;;;;;;;41.55;17.98;;;;;;;10.78;92.24;102339.06;5012549;28;20390;-72
2022/06/14 05:56:32;;;;;;;45.20;19.33;;;;;;;10.87;92.52;102337.88;5014125;28;20030;-73
2022/06/14 05:59:21;;;;;;;37.17;19.08;;;;;;;10.93;92.78;102343.66;5010473;28;20056;-71
2022/06/14 06:02:02;;;;;;;40.20;18.05;;;;;;;10.97;92.82;102350.47;5015856;28;20616;-71
2022/06/14 06:04:50;;;;;;;42.17;18.83;;;;;;;11.12;92.57;102345.75;5013258;28;20038;-73
2022/06/14 06:07:23;;;;;;;40.63;15.50;;;;;;;11.25;91.05;102342.25;5022198;28;20026;-72
2022/06/14 06:09:55;;;;;;;38.70;16.92;;;;;;;11.36;91.39;102342.56;5019563;28;20041;-70
2022/06/14 06:12:37;;;;;;;32.58;15.30;;;;;;;11.66;90.78;102351.47;5027014;28;20021;-70
2022/06/14 06:15:06;;;;;;;30.23;13.75;;;;;;;11.79;89.03;102342.44;5024078;28;20112;-73
2022/06/14 06:17:45;;;;;;;28.33;12.13;;;;;;;11.83;88.56;102351.19;5025262;28;20091;-73
2022/06/14 06:20:21;;;;;;;23.45;11.02;;;;;;;11.86;87.66;102345.25;5021685;28;20038;-69
2022/06/14 06:22:54;;;;;;;21.90;10.43;;;;;;;11.89;88.22;102348.47;5021094;28;20032;-69
2022/06/14 06:25:27;;;;;;;21.63;10.07;;;;;;;11.97;88.29;102343.84;5008205;28;20815;-69
2022/06/14 06:28:31;;;;;;;19.23;8.13;;;;;;;12.10;85.43;102343.91;5016610;28;20076;-69
2022/06/14 06:30:59;;;;;;;16.05;7.40;;;;;;;12.18;85.02;102350.09;5017757;28;20026;-69
2022/06/14 06:33:27;;;;;;;15.30;5.95;;;;;;;12.28;81.92;102335.94;5012921;28;20060;-70
2022/06/14 06:36:02;;;;;;;15.40;5.45;;;;;;;12.42;81.58;102353.41;5013554;28;20441;-69
2022/06/14 06:39:05;;;;;;;12.43;4.78;;;;;;;12.54;79.11;102342.63;5007804;28;20484;-70
2022/06/14 06:41:55;;;;;;;10.25;4.93;;;;;;;12.63;78.13;102350.50;4989876;28;20372;-69
2022/06/14 06:44:58;;;;;;;11.10;4.50;;;;;;;12.71;78.43;102344.75;5008150;28;20038;-69
2022/06/14 06:47:29;;;;;;;10.88;3.65;;;;;;;12.82;74.97;102346.06;4979335;28;20501;-69
2022/06/14 06:50:12;;;;;;;9.88;4.15;;;;;;;12.88;76.13;102348.00;4983475;28;20539;-69
2022/06/14 06:52:45;;;;;;;13.45;5.20;;;;;;;12.94;78.39;102352.69;5001565;28;20418;-69
2022/06/14 06:55:18;;;;;;;11.85;4.85;;;;;;;13.06;76.41;102352.03;5019106;28;20309;-70
2022/06/14 06:57:47;;;;;;;11.27;5.00;;;;;;;13.16;77.19;102349.72;5022772;28;20029;-70
2022/06/14 07:00:14;;;;;;;;;;;;;;;13.23;78.00;102354.22;5018329;28;20391;-70
2022/06/14 07:02:47;;;;;;;12.85;3.85;;;;;;;13.35;72.98;102342.56;5013437;28;20309;-70
2022/06/14 07:05:14;;;;;;;10.15;4.10;;;;;;;13.41;72.43;102342.53;5019581;28;20048;-70
2022/06/14 07:07:59;;;;;;;10.77;3.93;;;;;;;13.50;74.22;102345.94;5026660;28;20104;-70
2022/06/14 07:10:39;;;;;;;12.10;4.00;;;;;;;13.63;71.57;102351.44;5027789;28;20287;-71
2022/06/14 07:13:38;;;;;;;12.40;4.93;;;;;;;13.76;74.21;102351.41;5027370;28;20397;-71
2022/06/14 07:16:10;;;;;;;11.40;4.03;;;;;;;13.85;72.06;102352.06;5026535;28;20040;-71
2022/06/14 07:18:48;;;;;;;11.20;3.45;;;;;;;13.93;70.81;102351.78;5025690;28;20064;-71
2022/06/14 07:21:19;;;;;;;8.45;3.60;;;;;;;14.03;72.89;102354.09;5025955;28;20374;-71
2022/06/14 07:23:55;;;;;;;9.13;3.30;;;;;;;14.05;66.96;102348.41;5027246;28;20057;-71
2022/06/14 07:26:32;;;;;;;9.52;3.40;;;;;;;14.09;68.74;102347.75;5026937;28;20029;-71
2022/06/14 07:29:06;;;;;;;10.05;3.63;;;;;;;14.18;68.49;102348.31;5027098;28;20386;-71
2022/06/14 07:31:41;;;;;;;8.90;3.75;;;;;;;14.36;66.20;102345.72;5024622;28;20099;-71
2022/06/14 07:34:09;;;;;;;8.35;3.78;;;;;;;14.37;64.39;102341.03;5020603;28;20024;-70
2022/06/14 07:36:58;;;;;;;11.63;3.35;;;;;;;14.40;63.23;102346.97;5027511;28;20137;-70
2022/06/14 07:39:32;;;;;;;10.23;3.50;;;;;;;14.46;65.04;102339.72;5026270;28;20939;-70
2022/06/14 07:42:07;;;;;;;10.77;3.92;;;;;;;14.46;62.22;102335.03;5006763;28;20137;-71
2022/06/14 07:44:48;;;;;;;11.10;4.20;;;;;;;14.51;68.22;102340.78;5006963;28;20039;-71
2022/06/14 07:47:19;;;;;;;7.53;3.35;;;;;;;14.61;62.89;102334.78;5011289;28;20061;-71
2022/06/14 07:49:50;;;;;;;11.77;3.40;;;;;;;14.60;61.50;102334.97;5025603;28;20478;-70
2022/06/14 07:52:19;;;;;;;7.20;3.10;;;;;;;14.60;60.35;102341.38;5021624;28;20037;-71
2022/06/14 07:54:54;;;;;;;9.35;3.42;;;;;;;14.72;62.16;102336.00;5021438;28;20476;-71
2022/06/14 07:57:26;;;;;;;10.82;3.65;;;;;;;14.76;61.66;102337.25;5025559;28;20033;-71
2022/06/14 08:01:07;;;;;;;9.75;4.05;;;;;;;14.82;62.78;102336.34;5026634;28;20029;-68
2022/06/14 08:02:51;;;;;;;11.70;4.28;;;;;;;14.83;61.45;102332.50;5024518;28;20033;-70
2022/06/14 08:05:21;;;;;;;8.57;3.70;;;;;;;14.87;60.14;102341.22;5026300;28;20095;-71
2022/06/14 08:07:49;;;;;;;10.30;3.97;;;;;;;14.91;60.26;102331.41;5005375;28;20049;-71
2022/06/14 08:10:21;;;;;;;13.45;3.83;;;;;;;15.00;60.64;102335.56;5011371;28;20116;-71
2022/06/14 08:12:58;;;;;;;10.25;4.53;;;;;;;15.10;63.39;102340.63;5025652;28;20028;-71
2022/06/14 08:15:28;;;;;;;11.23;3.53;;;;;;;15.23;60.84;102329.44;5026015;28;20423;-71
2022/06/14 08:18:26;;;;;;;11.52;3.95;;;;;;;15.29;62.50;102325.78;5023720;28;20044;-71
2022/06/14 08:21:12;;;;;;;14.60;4.20;;;;;;;15.35;61.94;102335.94;5026333;28;20117;-72
2022/06/14 08:23:54;;;;;;;11.55;3.70;;;;;;;15.37;61.11;102324.66;5026154;28;20107;-71
2022/06/14 08:26:28;;;;;;;10.43;3.95;;;;;;;15.43;59.60;102319.06;5026362;28;20108;-71
2022/06/14 08:29:13;;;;;;;11.60;3.72;;;;;;;15.53;60.17;102321.31;5020824;28;20041;-71
2022/06/14 08:31:50;;;;;;;10.35;3.67;;;;;;;15.56;58.15;102313.41;5022981;28;20053;-71
2022/06/14 08:34:25;;;;;;;8.90;3.42;;;;;;;15.71;58.49;102317.72;5025784;28;20057;-71
2022/06/14 08:37:01;;;;;;;10.95;4.10;;;;;;;15.65;58.65;102313.13;5025114;28;20029;-71
2022/06/14 08:39:33;;;;;;;8.50;3.35;;;;;;;15.84;60.70;102309.28;5025993;28;20414;-71
2022/06/14 08:42:28;;;;;;;8.60;3.72;;;;;;;15.94;59.68;102311.53;5025705;28;20450;-71
2022/06/14 08:44:59;;;;;;;9.68;3.70;;;;;;;16.01;57.17;102315.91;5025289;28;20033;-71
2022/06/14 08:47:35;;;;;;;8.40;4.03;;;;;;;16.02;56.68;102311.22;5022958;28;20083;-71
2022/06/14 08:50:23;;;;;;;9.52;3.92;;;;;;;16.16;58.48;102309.13;5016310;28;20485;-71
2022/06/14 08:53:03;;;;;;;9.52;3.38;;;;;;;16.31;57.60;102310.41;5024496;28;20025;-71
2022/06/14 08:55:55;;;;;;;8.63;3.47;;;;;;;16.42;56.80;102311.53;5023141;28;20039;-72
2022/06/14 08:58:52;;;;;;;11.60;4.85;;;;;;;16.56;58.36;102315.00;5025851;28;20033;-71
2022/06/14 09:01:42;;;;;;;9.53;3.63;;;;;;;16.61;56.01;102304.88;5023703;28;20041;-71
2022/06/14 09:04:41;;;;;;;9.35;3.67;;;;;;;16.74;57.30;102309.44;5025355;28;20296;-71
2022/06/14 09:07:42;;;;;;;10.10;3.90;;;;;;;16.84;59.48;102311.63;5029662;28;20095;-71
2022/06/14 09:10:12;;;;;;;11.48;4.03;;;;;;;17.02;56.91;102305.16;5044974;28;20052;-71
2022/06/14 09:13:09;;;;;;;8.43;4.63;;;;;;;17.03;54.13;102310.47;5045183;28;20472;-72
2022/06/14 09:15:40;;;;;;;8.70;4.07;;;;;;;17.20;54.75;102307.00;5023823;28;20037;-71
2022/06/14 09:18:42;;;;;;;7.82;2.95;;;;;;;17.51;56.64;102309.44;5024898;28;20032;-71
2022/06/14 09:21:26;;;;;;;7.95;3.10;;;;;;;17.59;51.26;102309.09;5025347;28;20036;-70
2022/06/14 09:24:40;;;;;;;7.78;3.00;;;;;;;17.81;52.64;102305.72;5022967;28;20080;-71
2022/06/14 09:27:36;;;;;;;7.32;2.80;;;;;;;17.96;53.21;102305.19;5024794;28;20725;-71
2022/06/14 09:30:14;;;;;;;9.18;3.30;;;;;;;18.21;51.04;102308.53;5018262;28;20030;-71
2022/06/14 09:33:10;;;;;;;9.35;3.40;;;;;;;18.55;54.34;102309.50;5023822;28;20032;-70
2022/06/14 09:36:17;;;;;;;13.02;5.07;;;;;;;19.42;50.99;102305.47;5023823;28;20112;-72
2022/06/14 09:39:11;;;;;;;7.15;3.72;;;;;;;21.57;45.93;102292.06;5025101;28;20035;-72
2022/06/14 09:41:58;;;;;;;10.75;3.40;;;;;;;23.59;41.05;102304.09;5023514;28;20501;-72
2022/06/14 09:45:01;;;;;;;9.10;4.05;;;;;;;26.00;36.91;102292.97;5020787;28;20040;-72
2022/06/14 09:47:45;;;;;;;7.75;3.33;;;;;;;27.61;32.85;102290.78;5022063;28;20060;-71
2022/06/14 09:50:47;;;;;;;7.43;2.83;;;;;;;29.58;30.67;102288.59;5020274;28;20136;-71
2022/06/14 09:53:15;;;;;;;7.60;2.40;;;;;;;30.05;26.43;102288.13;5021221;28;20041;-68
2022/06/14 09:55:59;;;;;;;;;;;;;;;29.00;28.47;102280.22;5025972;28;20933;-69
2022/06/14 09:58:51;;;;;;;8.32;3.40;;;;;;;29.20;30.11;102285.38;5023410;28;19940;-69
2022/06/14 10:01:22;;;;;;;7.57;2.40;;;;;;;30.10;28.44;102268.97;5014357;28;20033;-69
2022/06/14 10:04:08;;;;;;;6.95;2.20;;;;;;;30.50;26.82;102274.56;5018486;28;20044;-69
2022/06/14 10:06:54;;;;;;;5.93;2.00;;;;;;;30.96;26.28;102276.78;5019436;28;20124;-71
2022/06/14 10:09:55;;;;;;;7.28;2.53;;;;;;;30.90;26.86;102271.59;5022237;28;20046;-71
2022/06/14 10:12:51;;;;;;;7.85;2.10;;;;;;;31.47;29.63;102274.19;5017102;28;20462;-71
2022/06/14 10:15:43;;;;;;;7.55;2.58;;;;;;;31.70;28.23;102263.44;5020777;28;20029;-71
2022/06/14 10:18:33;;;;;;;7.50;2.58;;;;;;;32.03;27.48;102266.44;5017296;28;20034;-71
2022/06/14 10:21:19;;;;;;;7.85;3.08;;;;;;;32.54;25.16;102265.31;5017524;28;20029;-72
2022/06/14 10:24:05;;;;;;;8.95;2.60;;;;;;;32.67;23.77;102256.84;5025608;28;20036;-69
2022/06/14 10:29:52;;;;;;;8.13;2.55;;;;;;;31.91;25.52;102247.31;5025186;28;20071;-69
2022/06/14 10:32:55;;;;;;;7.22;2.60;;;;;;;31.66;26.35;102245.41;5023929;28;20053;-70
2022/06/14 10:35:57;;;;;;;5.25;2.40;;;;;;;30.30;26.14;102247.69;5025720;28;20026;-69
2022/06/14 10:38:42;;;;;;;6.10;2.10;;;;;;;28.44;29.45;102239.97;5024253;28;20128;-69
2022/06/14 10:41:10;;;;;;;6.97;2.50;;;;;;;27.73;30.79;102242.34;5009101;28;20052;-68
2022/06/14 10:43:56;;;;;;;9.10;2.88;;;;;;;26.47;31.74;102240.56;5009746;28;20025;-69
2022/06/14 10:46:26;;;;;;;7.28;3.08;;;;;;;24.89;31.65;102231.03;5020993;28;20121;-69
2022/06/14 10:49:19;;;;;;;7.53;2.90;;;;;;;23.44;38.36;102226.44;5024094;28;20060;-68
2022/06/14 10:52:07;;;;;;;7.85;3.40;;;;;;;23.21;37.20;102233.47;5018964;28;20034;-68
2022/06/14 10:55:05;;;;;;;7.95;3.90;;;;;;;23.28;38.80;102231.22;5026836;28;20033;-69
2022/06/14 10:57:37;;;;;;;8.65;3.40;;;;;;;23.15;38.99;102214.97;5022295;28;20037;-70
2022/06/14 11:00:46;;;;;;;7.53;3.40;;;;;;;23.19;39.52;102221.72;5024366;28;20041;-69
2022/06/14 11:03:38;;;;;;;8.15;3.50;;;;;;;22.88;39.61;102214.44;5024929;28;20513;-68
2022/06/14 11:06:22;;;;;;;9.13;3.95;;;;;;;22.89;39.10;102213.34;5021698;28;20061;-69
2022/06/14 11:09:31;;;;;;;8.98;3.40;;;;;;;23.00;42.05;102213.03;5024701;28;20099;-68
2022/06/14 11:12:02;;;;;;;9.52;3.25;;;;;;;22.76;37.62;102201.53;5024829;28;20045;-68
2022/06/14 11:14:47;;;;;;;8.65;3.72;;;;;;;22.57;40.80;102203.22;5027407;28;20478;-68
2022/06/14 11:17:54;;;;;;;8.98;3.90;;;;;;;22.62;39.77;102206.03;5022061;28;20779;-68
2022/06/14 11:20:34;;;;;;;12.10;4.20;;;;;;;22.93;40.10;102206.88;4996165;28;20390;-68
2022/06/14 11:23:12;;;;;;;12.23;3.50;;;;;;;22.62;38.45;102200.41;5024290;28;20478;-68
2022/06/14 11:26:02;;;;;;;8.02;3.20;;;;;;;22.18;41.18;102200.06;5024779;28;20436;-68
2022/06/14 11:28:41;;;;;;;9.20;3.63;;;;;;;22.31;40.12;102201.50;5026512;28;20326;-68
2022/06/14 11:31:18;;;;;;;10.50;3.80;;;;;;;22.51;38.16;102190.34;5026268;28;20121;-70
2022/06/14 11:34:12;;;;;;;9.30;3.20;;;;;;;22.69;38.82;102189.75;5027032;28;20537;-68
2022/06/14 11:37:01;;;;;;;8.35;3.15;;;;;;;22.30;41.76;102195.03;5023612;28;20160;-68
2022/06/14 11:39:41;;;;;;;8.68;3.60;;;;;;;22.39;38.59;102178.53;5028043;28;20038;-68
2022/06/14 11:42:32;;;;;;;10.95;3.83;;;;;;;22.46;38.73;102181.94;5024573;28;20025;-68
2022/06/14 11:45:31;;;;;;;8.70;2.80;;;;;;;22.62;40.04;102175.22;5024795;28;20555;-68
2022/06/14 11:48:11;;;;;;;8.82;3.45;;;;;;;22.87;42.00;102171.56;5023991;28;20121;-68
2022/06/14 11:50:40;;;;;;;9.80;3.85;;;;;;;22.92;36.85;102165.16;5026102;28;20178;-68
2022/06/14 11:53:39;;;;;;;9.82;3.45;;;;;;;23.03;38.33;102167.66;5024199;28;20033;-69
2022/06/14 11:56:13;;;;;;;10.30;3.63;;;;;;;22.96;37.62;102164.31;5018412;28;20420;-68
2022/06/14 11:59:13;;;;;;;7.28;2.92;;;;;;;23.03;39.57;102159.25;5024377;28;20029;-71
2022/06/14 12:01:52;;;;;;;11.52;3.70;;;;;;;23.20;41.30;102156.13;5010565;28;20060;-69
2022/06/14 12:04:41;;;;;;;11.30;3.80;;;;;;;23.33;41.12;102153.84;5019110;28;20036;-69
2022/06/14 12:07:10;;;;;;;10.32;3.70;;;;;;;23.45;40.25;102155.19;5022042;28;20707;-69
2022/06/14 12:10:07;;;;;;;10.27;4.40;;;;;;;23.39;38.22;102152.72;5025121;28;20132;-69
2022/06/14 12:13:00;;;;;;;11.48;4.15;;;;;;;23.15;37.89;102158.94;5017946;28;20065;-68
2022/06/14 12:15:50;;;;;;;12.73;4.50;;;;;;;23.11;42.06;102156.97;5006567;28;20111;-67
2022/06/14 12:18:20;;;;;;;11.38;4.05;;;;;;;23.41;39.54;102151.28;5022403;28;20033;-68
2022/06/14 12:21:11;;;;;;;10.80;4.40;;;;;;;23.43;37.09;102148.22;5027105;28;20033;-68
2022/06/14 12:23:51;;;;;;;10.82;3.92;;;;;;;23.63;43.02;102147.28;5023602;28;20045;-68
2022/06/14 12:26:35;;;;;;;9.23;4.35;;;;;;;23.64;38.14;102149.84;5026111;28;20072;-67
2022/06/14 12:29:17;;;;;;;14.10;4.38;;;;;;;23.60;39.31;102145.88;5025861;28;20032;-68